Time;durP1;ratioP1;P1;durP2;ratioP2;P2;SDS_P1;SDS_P2;PMS_P1;PMS_P2;Temp;Humidity;BMP_temperature;BMP_pressure;BME280_temperature;BME280_humidity;BME280_pressure;Samples;Min_cycle;Max_cycle;Signal;HPM_P1;HPM_P2
2022/06/26 00:00:19;;;;;;;2.50;2.30;;;18.10;99.90;;;;;;5038270;28;20814;-89
2022/06/26 00:02:46;;;;;;;3.00;2.47;;;18.20;99.90;;;;;;5047901;28;20438;-88
2022/06/26 00:05:15;;;;;;;3.60;2.20;;;18.20;99.90;;;;;;5039195;28;20448;-89
2022/06/26 00:07:45;;;;;;;2.13;1.90;;;18.20;99.90;;;;;;5035056;28;20902;-89
2022/06/26 00:10:11;;;;;;;2.70;2.23;;;18.30;99.90;;;;;;5044975;28;20938;-89
2022/06/26 00:12:36;;;;;;;2.53;2.00;;;18.20;99.90;;;;;;5043780;28;20445;-90
2022/06/26 00:15:02;;;;;;;3.33;1.90;;;18.30;99.90;;;;;;5045335;28;20651;-89
2022/06/26 00:17:28;;;;;;;2.40;2.20;;;18.30;99.90;;;;;;5040807;28;20572;-87
2022/06/26 00:19:54;;;;;;;2.93;2.43;;;18.40;99.90;;;;;;5040578;28;20700;-90
2022/06/26 00:22:20;;;;;;;2.50;2.30;;;18.40;99.90;;;;;;5037356;28;20197;-88
2022/06/26 00:24:46;;;;;;;4.57;2.93;;;18.50;99.90;;;;;;5042851;28;20176;-90
2022/06/26 00:27:12;;;;;;;3.60;3.30;;;18.50;99.90;;;;;;5043372;28;20800;-89
2022/06/26 00:29:37;;;;;;;3.87;3.57;;;18.60;99.90;;;;;;5045700;28;20243;-89
2022/06/26 00:32:04;;;;;;;4.13;3.63;;;18.60;99.90;;;;;;5040201;28;20830;-89
2022/06/26 00:34:30;;;;;;;3.93;3.73;;;18.60;99.90;;;;;;5042878;28;20192;-89
2022/06/26 00:36:56;;;;;;;5.53;5.10;;;18.50;99.90;;;;;;5040288;28;20438;-89
2022/06/26 00:39:21;;;;;;;4.60;4.20;;;18.50;99.90;;;;;;5045805;28;21518;-89
2022/06/26 00:41:47;;;;;;;4.10;3.80;;;18.40;99.90;;;;;;5043845;28;20176;-89
2022/06/26 00:44:18;;;;;;;4.07;3.77;;;18.40;99.90;;;;;;5045454;28;20187;-89
2022/06/26 00:46:44;;;;;;;3.63;3.33;;;18.30;99.90;;;;;;5041162;28;20259;-89
2022/06/26 00:49:10;;;;;;;4.50;3.60;;;18.20;99.90;;;;;;5053592;28;20511;-87
2022/06/26 00:51:40;;;;;;;3.57;3.27;;;18.20;99.90;;;;;;5042472;28;20426;-89
2022/06/26 00:54:07;;;;;;;3.63;3.43;;;18.20;99.90;;;;;;5056317;28;20233;-89
2022/06/26 00:56:34;;;;;;;3.20;3.00;;;18.20;99.90;;;;;;5041478;28;20415;-89
2022/06/26 00:59:00;;;;;;;4.33;3.07;;;18.20;99.90;;;;;;5042696;28;20441;-89
2022/06/26 01:01:26;;;;;;;3.70;3.10;;;18.30;99.90;;;;;;5041250;28;20785;-89
2022/06/26 01:03:52;;;;;;;3.37;2.80;;;18.30;99.90;;;;;;5041928;28;20435;-89
2022/06/26 01:06:18;;;;;;;4.10;2.90;;;18.40;99.90;;;;;;5041180;28;20545;-89
2022/06/26 01:08:45;;;;;;;3.80;3.50;;;18.50;99.90;;;;;;5042428;28;20219;-89
2022/06/26 01:11:20;;;;;;;3.00;2.80;;;18.50;99.90;;;;;;5040927;28;20447;-88
2022/06/26 01:13:48;;;;;;;3.20;2.70;;;18.60;99.90;;;;;;5040618;28;20465;-89
2022/06/26 01:16:19;;;;;;;4.40;3.10;;;18.70;99.90;;;;;;5044449;28;20502;-89
2022/06/26 01:18:47;;;;;;;4.80;2.73;;;18.80;99.90;;;;;;5056035;28;20442;-89
2022/06/26 01:21:12;;;;;;;2.30;2.20;;;19.00;99.90;;;;;;5041025;28;20838;-89
2022/06/26 01:23:38;;;;;;;3.10;2.10;;;19.10;99.90;;;;;;5041865;28;20485;-87
2022/06/26 01:26:04;;;;;;;2.60;2.40;;;19.20;99.90;;;;;;5041335;28;20642;-90
2022/06/26 01:28:30;;;;;;;2.63;2.47;;;19.30;99.90;;;;;;5040756;28;20253;-89
2022/06/26 01:30:56;;;;;;;2.33;2.23;;;19.30;99.90;;;;;;5047112;28;20183;-89
2022/06/26 01:33:22;;;;;;;5.90;2.30;;;19.30;99.90;;;;;;5043839;28;20233;-89
2022/06/26 01:35:48;;;;;;;2.30;2.10;;;19.20;99.90;;;;;;5040912;28;20188;-89
2022/06/26 01:38:22;;;;;;;2.30;2.10;;;19.20;99.90;;;;;;5038169;28;20473;-89
2022/06/26 01:40:50;;;;;;;2.70;2.50;;;19.30;99.90;;;;;;5039773;28;20197;-88
2022/06/26 01:43:18;;;;;;;2.23;2.13;;;19.30;99.90;;;;;;5041915;28;20536;-89
2022/06/26 01:45:49;;;;;;;2.87;2.63;;;19.20;99.90;;;;;;5040450;28;20488;-89
2022/06/26 01:48:16;;;;;;;3.00;2.60;;;19.20;99.90;;;;;;5046304;28;20454;-89
2022/06/26 01:50:42;;;;;;;2.40;2.20;;;19.30;99.90;;;;;;5043074;28;20446;-86
2022/06/26 01:53:08;;;;;;;4.10;2.47;;;19.20;99.90;;;;;;5038647;28;20541;-86
2022/06/26 01:55:34;;;;;;;2.43;2.33;;;19.10;99.90;;;;;;5039136;28;22013;-86
2022/06/26 01:58:02;;;;;;;3.43;3.10;;;19.00;99.90;;;;;;5041592;28;20179;-86
2022/06/26 02:00:30;;;;;;;3.23;3.00;;;19.00;99.90;;;;;;5043538;28;20195;-86
2022/06/26 02:02:56;;;;;;;2.73;2.53;;;19.00;99.90;;;;;;5044310;28;20446;-86
2022/06/26 02:05:22;;;;;;;3.50;2.90;;;18.80;99.90;;;;;;5042622;28;20426;-87
2022/06/26 02:07:48;;;;;;;3.20;3.00;;;18.80;99.90;;;;;;5039688;28;20702;-86
2022/06/26 02:15:42;;;;;;;2.80;2.60;;;18.80;99.90;;;;;;5034020;28;20958;-85
2022/06/26 02:18:08;;;;;;;3.13;2.93;;;18.80;99.90;;;;;;5040860;28;20426;-86
2022/06/26 02:20:34;;;;;;;3.03;2.83;;;18.80;99.90;;;;;;5044121;28;20539;-87
2022/06/26 02:23:00;;;;;;;4.43;2.90;;;18.80;99.90;;;;;;5039507;28;20290;-86
2022/06/26 02:25:26;;;;;;;2.90;2.70;;;18.90;99.90;;;;;;5040487;28;20529;-86
2022/06/26 02:27:51;;;;;;;2.97;2.77;;;18.80;99.90;;;;;;5038977;28;20199;-87
2022/06/26 02:30:17;;;;;;;2.87;2.70;;;18.80;99.90;;;;;;5045375;28;20528;-86
2022/06/26 02:32:42;;;;;;;3.27;3.07;;;18.80;99.90;;;;;;5036918;28;20190;-87
2022/06/26 02:35:09;;;;;;;2.77;2.57;;;18.80;99.90;;;;;;5039245;28;20233;-86
2022/06/26 02:37:35;;;;;;;2.87;2.67;;;18.70;99.90;;;;;;5040142;28;20535;-86
2022/06/26 02:40:01;;;;;;;3.47;3.27;;;18.80;99.90;;;;;;5041200;28;20438;-87
2022/06/26 02:42:26;;;;;;;2.90;2.80;;;18.80;99.90;;;;;;5040149;28;20849;-86
2022/06/26 02:44:52;;;;;;;2.67;2.57;;;18.80;99.90;;;;;;5041780;28;20192;-86
2022/06/26 02:47:18;;;;;;;2.67;2.47;;;18.80;99.90;;;;;;5042194;28;20188;-87
2022/06/26 02:49:43;;;;;;;2.90;2.70;;;18.80;99.90;;;;;;5034325;28;20218;-86
2022/06/26 02:52:09;;;;;;;2.47;2.37;;;18.90;99.90;;;;;;5037800;28;20593;-86
2022/06/26 02:54:34;;;;;;;3.10;2.90;;;19.00;99.90;;;;;;5040717;28;20186;-86
2022/06/26 02:57:00;;;;;;;3.70;3.20;;;19.00;99.90;;;;;;5043163;28;20262;-86
2022/06/26 02:59:25;;;;;;;3.10;2.90;;;19.00;99.90;;;;;;5042833;28;20222;-86
2022/06/26 03:01:53;;;;;;;2.77;2.57;;;19.00;99.90;;;;;;5023672;28;21060;-87
2022/06/26 03:04:18;;;;;;;3.13;2.93;;;19.00;99.90;;;;;;5040957;28;20438;-86
2022/06/26 03:06:44;;;;;;;2.90;2.70;;;18.90;99.90;;;;;;5036264;28;20475;-89
2022/06/26 03:09:10;;;;;;;3.07;2.87;;;18.60;99.90;;;;;;5039187;28;21664;-89
2022/06/26 03:11:35;;;;;;;2.87;2.67;;;18.80;99.90;;;;;;5039237;28;20182;-88
2022/06/26 03:14:01;;;;;;;3.33;2.97;;;18.80;99.90;;;;;;5040464;28;20195;-89
2022/06/26 03:16:26;;;;;;;3.43;3.13;;;18.80;99.90;;;;;;5037986;28;20217;-88
2022/06/26 03:18:52;;;;;;;3.70;2.83;;;18.70;99.90;;;;;;5040977;28;20554;-88
2022/06/26 03:21:17;;;;;;;3.37;3.10;;;18.60;99.90;;;;;;5041947;28;20271;-88
2022/06/26 03:24:01;;;;;;;3.07;2.87;;;18.40;99.90;;;;;;5038945;28;20664;-86
2022/06/26 03:26:28;;;;;;;2.57;2.37;;;18.40;99.90;;;;;;5040131;28;20653;-86
2022/06/26 03:28:53;;;;;;;2.90;2.70;;;18.40;99.90;;;;;;5034879;28;20986;-86
2022/06/26 03:31:20;;;;;;;3.10;2.90;;;18.50;99.90;;;;;;5039573;28;20445;-86
2022/06/26 03:33:46;;;;;;;3.13;2.93;;;18.60;99.90;;;;;;5040774;28;20199;-86
2022/06/26 03:36:11;;;;;;;3.27;3.03;;;18.60;99.90;;;;;;5041118;28;20422;-86
2022/06/26 03:38:38;;;;;;;2.50;2.40;;;18.70;99.90;;;;;;5037884;28;20557;-86
2022/06/26 03:41:05;;;;;;;3.13;2.93;;;18.60;99.90;;;;;;5040738;28;20199;-86
2022/06/26 03:43:31;;;;;;;2.97;2.70;;;18.60;99.90;;;;;;5044116;28;20438;-86
2022/06/26 03:45:58;;;;;;;2.47;2.37;;;18.60;99.90;;;;;;5042331;28;20448;-86
2022/06/26 03:48:24;;;;;;;3.10;2.90;;;18.60;99.90;;;;;;5046721;28;20477;-86
2022/06/26 03:50:55;;;;;;;2.97;2.77;;;18.70;99.90;;;;;;5044363;28;20795;-86
2022/06/26 03:53:27;;;;;;;2.63;2.20;;;18.70;99.90;;;;;;5058713;28;20521;-86
2022/06/26 03:56:00;;;;;;;2.87;2.67;;;18.70;99.90;;;;;;5043519;28;20445;-89
2022/06/26 03:58:26;;;;;;;2.40;2.30;;;18.80;99.90;;;;;;5045703;28;20800;-86
2022/06/26 04:00:52;;;;;;;3.10;2.90;;;18.80;99.90;;;;;;5039304;28;20209;-86
2022/06/26 04:03:20;;;;;;;7.20;3.40;;;18.70;99.90;;;;;;5043325;28;20264;-86
2022/06/26 04:05:45;;;;;;;2.83;2.60;;;18.70;99.90;;;;;;5063793;28;20907;-88
2022/06/26 04:08:11;;;;;;;3.00;2.80;;;18.80;99.90;;;;;;5039382;28;20514;-88
2022/06/26 04:10:37;;;;;;;3.23;2.93;;;18.80;99.90;;;;;;5042112;28;20199;-86
2022/06/26 04:13:09;;;;;;;3.60;3.30;;;18.90;99.90;;;;;;5043518;28;20214;-86
2022/06/26 04:15:35;;;;;;;3.07;2.87;;;18.90;99.90;;;;;;5041290;28;20446;-86
2022/06/26 04:18:02;;;;;;;3.23;2.93;;;19.00;99.90;;;;;;5046748;28;20515;-86
2022/06/26 04:20:28;;;;;;;3.17;2.97;;;19.00;99.90;;;;;;5044426;28;20453;-86
2022/06/26 04:23:01;;;;;;;3.37;3.17;;;19.00;99.90;;;;;;5040705;28;20420;-86
2022/06/26 04:25:28;;;;;;;2.87;2.67;;;19.00;99.90;;;;;;5041531;28;20446;-86
2022/06/26 04:27:55;;;;;;;2.53;2.33;;;19.00;99.90;;;;;;5044824;28;20433;-86
2022/06/26 04:30:20;;;;;;;2.70;2.50;;;19.00;99.90;;;;;;5044883;28;20481;-86
2022/06/26 04:32:46;;;;;;;3.50;3.30;;;19.10;99.90;;;;;;5043238;28;20469;-86
2022/06/26 04:35:12;;;;;;;2.90;2.60;;;19.10;99.90;;;;;;5045181;28;20553;-86
2022/06/26 04:37:40;;;;;;;3.03;2.83;;;18.90;99.90;;;;;;5046680;28;20183;-86
2022/06/26 04:40:08;;;;;;;4.50;3.00;;;18.80;99.90;;;;;;5035903;28;21080;-86
2022/06/26 04:42:34;;;;;;;2.80;2.60;;;18.70;99.90;;;;;;5044717;28;20428;-86
2022/06/26 04:45:00;;;;;;;2.93;2.63;;;18.70;99.90;;;;;;5043739;28;20488;-86
2022/06/26 04:47:26;;;;;;;4.30;2.90;;;18.70;99.90;;;;;;5041178;28;20192;-86
2022/06/26 04:49:54;;;;;;;2.83;2.63;;;18.70;99.90;;;;;;5027334;28;20216;-86
2022/06/26 04:52:22;;;;;;;2.97;2.80;;;18.70;99.90;;;;;;5043809;28;20184;-86
2022/06/26 04:54:55;;;;;;;3.00;2.70;;;18.80;99.90;;;;;;5039382;28;20936;-87
2022/06/26 04:57:22;;;;;;;2.60;2.40;;;18.90;99.90;;;;;;5041672;28;20184;-86
2022/06/26 04:59:48;;;;;;;2.80;2.70;;;19.00;99.90;;;;;;5044385;28;20561;-87
2022/06/26 05:02:13;;;;;;;3.30;3.07;;;19.10;99.90;;;;;;5042855;28;20525;-86
2022/06/26 05:04:39;;;;;;;3.07;2.87;;;19.20;99.90;;;;;;5044018;28;20203;-86
2022/06/26 05:07:04;;;;;;;2.90;2.70;;;19.30;99.90;;;;;;5044906;28;20190;-86
2022/06/26 05:09:30;;;;;;;3.00;2.80;;;19.30;99.90;;;;;;5044404;28;20215;-86
2022/06/26 05:11:56;;;;;;;3.10;2.90;;;19.20;99.90;;;;;;5044920;28;20183;-87
2022/06/26 05:14:23;;;;;;;3.00;2.80;;;19.20;99.90;;;;;;5042139;28;20555;-86
2022/06/26 05:16:48;;;;;;;2.60;2.50;;;19.20;99.90;;;;;;5057234;28;20442;-86
2022/06/26 05:19:14;;;;;;;2.60;2.50;;;19.40;99.90;;;;;;5038845;28;20450;-87
2022/06/26 05:21:40;;;;;;;3.20;3.00;;;19.60;99.90;;;;;;5048387;28;20194;-88
2022/06/26 05:24:05;;;;;;;4.07;3.07;;;19.60;99.90;;;;;;5023869;28;20637;-88
2022/06/26 05:26:31;;;;;;;3.50;3.20;;;19.60;99.90;;;;;;5023496;28;20183;-88
2022/06/26 05:28:57;;;;;;;4.47;3.03;;;19.60;99.90;;;;;;5057821;28;20245;-86
2022/06/26 05:31:23;;;;;;;3.00;2.80;;;19.50;99.90;;;;;;5040615;28;20218;-86
2022/06/26 05:33:50;;;;;;;4.17;3.33;;;19.50;99.90;;;;;;5040872;28;20473;-86
2022/06/26 05:36:16;;;;;;;3.07;2.87;;;19.50;99.90;;;;;;5044266;28;20402;-86
2022/06/26 05:38:43;;;;;;;3.47;3.17;;;19.50;99.90;;;;;;5041572;28;20862;-86
2022/06/26 05:41:09;;;;;;;3.87;2.90;;;19.50;99.90;;;;;;5041697;28;20279;-86
2022/06/26 05:43:35;;;;;;;3.00;2.77;;;19.50;99.90;;;;;;5041413;28;20552;-86
2022/06/26 05:46:00;;;;;;;3.33;2.77;;;19.50;99.90;;;;;;5041582;28;21033;-86
2022/06/26 05:48:26;;;;;;;3.63;3.37;;;19.50;99.90;;;;;;5044846;28;20207;-86
2022/06/26 05:50:52;;;;;;;4.07;3.17;;;19.40;99.90;;;;;;5040413;28;20215;-87
2022/06/26 05:53:19;;;;;;;4.67;3.90;;;19.30;99.90;;;;;;5040828;28;21333;-86
2022/06/26 05:55:46;;;;;;;3.60;3.30;;;19.30;99.90;;;;;;5040930;28;20438;-85
2022/06/26 05:58:12;;;;;;;3.07;2.80;;;19.20;99.90;;;;;;5038392;28;20438;-86
2022/06/26 06:00:38;;;;;;;4.03;3.40;;;19.20;99.90;;;;;;5046137;28;20457;-86
2022/06/26 06:03:04;;;;;;;3.57;3.37;;;19.10;99.90;;;;;;5040172;28;20222;-86
2022/06/26 06:05:30;;;;;;;3.53;2.90;;;19.20;99.90;;;;;;5041557;28;22049;-86
2022/06/26 06:07:57;;;;;;;4.23;3.80;;;19.20;99.90;;;;;;5039516;28;20426;-86
2022/06/26 06:10:24;;;;;;;3.97;3.67;;;19.20;99.90;;;;;;5043965;28;20184;-86
2022/06/26 06:12:51;;;;;;;3.57;3.30;;;19.20;99.90;;;;;;5041262;28;20453;-86
2022/06/26 06:15:17;;;;;;;3.33;3.13;;;19.30;99.90;;;;;;5039805;28;20452;-86
2022/06/26 06:17:44;;;;;;;4.13;3.77;;;19.10;99.90;;;;;;5037361;28;20993;-86
2022/06/26 06:20:14;;;;;;;3.93;3.50;;;19.10;99.90;;;;;;5041694;28;20430;-86
2022/06/26 06:22:44;;;;;;;4.03;3.27;;;19.10;99.90;;;;;;5038829;28;20441;-86
2022/06/26 06:25:11;;;;;;;3.90;3.50;;;19.10;99.90;;;;;;5040596;28;20440;-86
2022/06/26 06:27:37;;;;;;;3.40;3.10;;;19.30;99.90;;;;;;5027487;28;20695;-86
2022/06/26 06:30:06;;;;;;;3.47;3.27;;;19.30;99.90;;;;;;5042316;28;20556;-86
2022/06/26 06:32:32;;;;;;;3.40;3.10;;;19.30;99.90;;;;;;5035366;28;20440;-87
2022/06/26 06:34:58;;;;;;;3.47;3.10;;;19.40;99.90;;;;;;5036828;28;22173;-86
2022/06/26 06:37:23;;;;;;;3.60;3.30;;;19.50;99.90;;;;;;5039458;28;20183;-86
2022/06/26 06:39:49;;;;;;;3.57;3.30;;;19.50;99.90;;;;;;5044930;28;20187;-89
2022/06/26 06:42:15;;;;;;;3.10;2.87;;;19.70;99.90;;;;;;5040303;28;20175;-86
2022/06/26 06:44:40;;;;;;;3.00;2.80;;;19.90;99.90;;;;;;5038068;28;20360;-86
2022/06/26 06:47:07;;;;;;;3.30;3.00;;;20.10;99.90;;;;;;5038654;28;20567;-87
2022/06/26 06:49:34;;;;;;;3.37;3.17;;;20.10;99.90;;;;;;5037247;28;20253;-86
2022/06/26 06:51:59;;;;;;;3.40;3.20;;;20.20;99.90;;;;;;5039677;28;20532;-86
2022/06/26 06:54:31;;;;;;;3.13;2.97;;;20.10;99.90;;;;;;5039723;28;20624;-87
2022/06/26 06:56:57;;;;;;;3.20;3.00;;;20.20;99.90;;;;;;5040529;28;20184;-87
2022/06/26 06:59:48;;;;;;;3.10;2.90;;;20.20;99.90;;;;;;5040535;28;20446;-87
2022/06/26 07:02:38;;;;;;;2.50;2.40;;;20.40;99.90;;;;;;5040093;28;20442;-87
2022/06/26 07:05:05;;;;;;;3.20;2.93;;;20.40;99.90;;;;;;5035278;28;20838;-87
2022/06/26 07:07:31;;;;;;;2.63;2.53;;;20.70;99.90;;;;;;5037292;28;20447;-87
2022/06/26 07:09:56;;;;;;;4.43;3.17;;;20.90;99.90;;;;;;5041484;28;20482;-87
2022/06/26 07:12:22;;;;;;;2.67;2.47;;;21.10;99.90;;;;;;5040637;28;20206;-87
2022/06/26 07:14:49;;;;;;;3.03;2.83;;;21.30;99.90;;;;;;5040806;28;20183;-87
2022/06/26 07:17:17;;;;;;;2.37;2.27;;;21.40;99.90;;;;;;5040291;28;20181;-87
2022/06/26 07:19:43;;;;;;;2.70;2.50;;;21.50;99.90;;;;;;5039643;28;20519;-87
2022/06/26 07:22:09;;;;;;;2.57;2.47;;;21.60;99.90;;;;;;5037729;28;20427;-87
2022/06/26 07:24:34;;;;;;;2.93;2.73;;;21.70;99.90;;;;;;5058176;28;20225;-87
2022/06/26 07:27:03;;;;;;;2.43;2.33;;;21.70;99.90;;;;;;5035050;28;20470;-87
2022/06/26 07:29:29;;;;;;;2.63;2.53;;;21.80;99.90;;;;;;5040582;28;20632;-87
2022/06/26 07:31:54;;;;;;;2.60;2.50;;;21.80;99.90;;;;;;5037104;28;20447;-87
2022/06/26 07:34:21;;;;;;;2.60;2.40;;;21.80;99.90;;;;;;5042009;28;20187;-87
2022/06/26 07:36:48;;;;;;;2.30;2.20;;;21.90;99.90;;;;;;5041099;28;20183;-87
2022/06/26 07:39:17;;;;;;;2.23;2.03;;;22.10;99.90;;;;;;5040084;28;20556;-87
2022/06/26 07:41:46;;;;;;;2.60;2.40;;;22.20;99.90;;;;;;5041884;28;20573;-87
2022/06/26 07:44:12;;;;;;;2.33;2.23;;;22.10;99.90;;;;;;5037781;28;20499;-87
2022/06/26 07:46:38;;;;;;;2.87;2.33;;;22.20;99.90;;;;;;5025182;28;20441;-87
2022/06/26 07:49:05;;;;;;;2.90;2.70;;;22.10;99.90;;;;;;5043171;28;20245;-87
2022/06/26 07:51:32;;;;;;;2.50;2.40;;;22.30;99.90;;;;;;5043461;28;20529;-88
2022/06/26 07:53:57;;;;;;;2.70;2.50;;;22.40;99.90;;;;;;5038983;28;20452;-87
2022/06/26 07:56:25;;;;;;;2.30;2.20;;;22.50;99.90;;;;;;5038696;28;20429;-87
2022/06/26 07:58:54;;;;;;;2.93;2.73;;;22.70;99.90;;;;;;5039939;28;20215;-87
2022/06/26 08:01:19;;;;;;;2.73;2.63;;;22.90;99.90;;;;;;5054461;28;20434;-88
2022/06/26 08:03:45;;;;;;;2.60;2.50;;;23.00;99.90;;;;;;5041124;28;20426;-87
2022/06/26 08:06:11;;;;;;;2.60;2.43;;;23.10;99.90;;;;;;5038564;28;20213;-88
2022/06/26 08:08:37;;;;;;;5.10;2.63;;;23.00;99.90;;;;;;5041816;28;20342;-87
2022/06/26 08:11:03;;;;;;;2.63;2.40;;;22.50;99.90;;;;;;5054319;28;20377;-87
2022/06/26 08:13:29;;;;;;;2.30;2.10;;;22.40;99.90;;;;;;5039594;28;20513;-87
2022/06/26 08:15:55;;;;;;;2.47;2.37;;;22.60;99.90;;;;;;5038557;28;20512;-87
2022/06/26 08:18:22;;;;;;;2.93;2.67;;;22.80;99.90;;;;;;5036554;28;20535;-88
2022/06/26 08:20:48;;;;;;;3.20;2.90;;;23.00;99.90;;;;;;5037110;28;20701;-87
2022/06/26 08:23:15;;;;;;;2.17;2.07;;;23.30;99.90;;;;;;5034220;28;20595;-87
2022/06/26 08:25:41;;;;;;;2.93;2.70;;;23.50;99.90;;;;;;5055858;28;20194;-87
2022/06/26 08:28:08;;;;;;;3.23;2.83;;;23.40;99.90;;;;;;5040999;28;20450;-87
2022/06/26 08:30:33;;;;;;;3.93;2.57;;;23.60;99.90;;;;;;5045564;28;20286;-87
2022/06/26 08:32:59;;;;;;;2.80;2.60;;;23.70;99.90;;;;;;5060545;28;20551;-87
2022/06/26 08:35:26;;;;;;;2.60;2.40;;;23.40;99.90;;;;;;5041604;28;20656;-87
2022/06/26 08:37:54;;;;;;;2.80;2.60;;;23.40;99.90;;;;;;5039470;28;20184;-87
2022/06/26 08:40:19;;;;;;;2.37;2.27;;;23.70;99.90;;;;;;5044981;28;20430;-87
2022/06/26 08:42:52;;;;;;;2.50;2.30;;;23.80;99.90;;;;;;5043406;28;20785;-87
2022/06/26 08:45:21;;;;;;;2.37;2.27;;;24.00;99.90;;;;;;5044173;28;20183;-87
2022/06/26 08:47:50;;;;;;;2.30;2.10;;;24.20;99.90;;;;;;5045287;28;20434;-87
2022/06/26 08:50:19;;;;;;;2.13;2.03;;;24.20;99.90;;;;;;5029062;28;20481;-87
2022/06/26 08:52:45;;;;;;;2.60;2.50;;;24.20;99.90;;;;;;5040340;28;20446;-87
2022/06/26 08:55:17;;;;;;;2.20;2.10;;;23.90;99.90;;;;;;5041452;28;20512;-88
2022/06/26 08:58:31;;;;;;;2.30;2.13;;;24.10;99.90;;;;;;5043965;28;20414;-88
2022/06/26 09:01:03;;;;;;;2.40;2.30;;;24.20;99.90;;;;;;5043996;28;20468;-87
2022/06/26 09:03:32;;;;;;;1.97;1.87;;;24.30;99.90;;;;;;5042105;28;20517;-87
2022/06/26 09:06:19;;;;;;;2.27;2.17;;;24.50;99.90;;;;;;5040661;28;20488;-87
2022/06/26 09:08:51;;;;;;;2.10;2.00;;;24.70;99.90;;;;;;5045596;28;20462;-87
2022/06/26 09:11:18;;;;;;;2.00;1.90;;;24.80;98.50;;;;;;5041370;28;21538;-87
2022/06/26 09:13:45;;;;;;;2.40;2.20;;;24.40;99.20;;;;;;5046229;28;20430;-87
2022/06/26 09:16:14;;;;;;;2.30;2.20;;;24.50;99.90;;;;;;5042840;28;20449;-88
2022/06/26 09:19:01;;;;;;;1.93;1.83;;;24.60;99.90;;;;;;5037224;28;20442;-87
2022/06/26 09:21:39;;;;;;;2.03;1.93;;;24.80;98.80;;;;;;5042212;28;20445;-87
2022/06/26 09:24:58;;;;;;;1.90;1.80;;;25.10;99.90;;;;;;5044397;28;20433;-87
2022/06/26 09:27:44;;;;;;;2.03;1.83;;;25.20;99.40;;;;;;5043935;28;20876;-87
2022/06/26 09:30:10;;;;;;;1.83;1.73;;;25.30;99.30;;;;;;5026430;28;20485;-87
2022/06/26 09:32:35;;;;;;;1.83;1.73;;;25.50;99.70;;;;;;5024693;28;20506;-88
2022/06/26 09:35:01;;;;;;;2.50;2.30;;;25.40;97.20;;;;;;5035782;28;20211;-87
2022/06/26 09:37:35;;;;;;;2.60;2.40;;;25.30;98.70;;;;;;5040395;28;20501;-87
2022/06/26 09:40:02;;;;;;;2.27;2.17;;;25.60;99.70;;;;;;5041134;28;20183;-87
2022/06/26 09:42:33;;;;;;;2.23;2.13;;;25.80;97.90;;;;;;5041183;28;20513;-87
2022/06/26 09:45:01;;;;;;;2.20;2.10;;;26.00;97.90;;;;;;5041990;28;20852;-86
2022/06/26 09:47:32;;;;;;;2.37;2.27;;;25.90;96.70;;;;;;5042137;28;20449;-87
2022/06/26 09:50:07;;;;;;;2.30;2.20;;;25.70;96.90;;;;;;5040846;28;20486;-87
2022/06/26 09:52:35;;;;;;;1.77;1.77;;;25.10;98.90;;;;;;5040742;28;20443;-87
2022/06/26 09:55:13;;;;;;;2.87;2.57;;;25.40;99.90;;;;;;5038583;28;20445;-88
2022/06/26 09:57:59;;;;;;;2.57;2.37;;;25.80;97.20;;;;;;5041059;28;20864;-88
2022/06/26 10:00:25;;;;;;;2.40;2.20;;;26.30;96.90;;;;;;5041467;28;20454;-87
2022/06/26 10:08:42;;;;;;;2.60;2.40;;;26.10;97.90;;;;;;5037747;28;20464;-87
2022/06/26 10:11:12;;;;;;;2.30;2.20;;;25.70;97.20;;;;;;5040890;28;20550;-88
2022/06/26 10:14:16;;;;;;;2.40;1.97;;;26.00;98.40;;;;;;5035899;28;20450;-87
2022/06/26 10:16:53;;;;;;;2.30;2.17;;;26.50;97.80;;;;;;5039636;28;20434;-87
2022/06/26 10:19:34;;;;;;;2.20;2.10;;;26.90;97.50;;;;;;5038751;28;20450;-87
2022/06/26 10:22:03;;;;;;;2.70;2.50;;;26.90;97.30;;;;;;5054078;28;20482;-87
2022/06/26 10:24:28;;;;;;;2.03;1.93;;;26.80;95.50;;;;;;5040702;28;20488;-87
2022/06/26 10:27:01;;;;;;;2.00;1.90;;;26.20;95.50;;;;;;5038104;28;20469;-87
2022/06/26 10:29:34;;;;;;;2.10;1.97;;;26.40;96.10;;;;;;5043163;28;20579;-87
2022/06/26 10:32:05;;;;;;;1.90;1.80;;;26.50;95.00;;;;;;5029586;28;21058;-88
2022/06/26 10:34:54;;;;;;;2.27;2.17;;;25.80;94.90;;;;;;5040472;28;20449;-87
2022/06/26 10:37:21;;;;;;;2.27;2.07;;;25.60;96.50;;;;;;5040760;28;20470;-87
2022/06/26 10:39:52;;;;;;;2.10;2.00;;;25.90;96.20;;;;;;5042677;28;20485;-87
2022/06/26 10:45:19;;;;;;;1.70;1.60;;;26.60;94.50;;;;;;5044020;28;21242;-87
2022/06/26 10:47:50;;;;;;;1.93;1.83;;;26.20;95.20;;;;;;5033383;28;20584;-88
2022/06/26 10:50:38;;;;;;;1.87;1.77;;;26.20;95.20;;;;;;5036281;28;20469;-88
2022/06/26 10:53:47;;;;;;;1.97;1.87;;;25.80;95.20;;;;;;5038093;28;20434;-88
2022/06/26 10:56:12;;;;;;;1.97;1.87;;;26.20;95.40;;;;;;5036476;28;20861;-87
2022/06/26 10:58:45;;;;;;;1.80;1.70;;;26.60;96.30;;;;;;5039136;28;20489;-87
2022/06/26 11:01:12;;;;;;;1.90;1.80;;;27.30;95.50;;;;;;5040864;28;20225;-87
2022/06/26 11:03:40;;;;;;;2.00;1.80;;;27.80;94.50;;;;;;5041024;28;20553;-87
2022/06/26 11:06:09;;;;;;;1.80;1.70;;;27.90;93.40;;;;;;5015486;28;20442;-88
2022/06/26 11:08:44;;;;;;;1.80;1.70;;;28.50;92.50;;;;;;5021689;28;20490;-87
2022/06/26 11:11:17;;;;;;;1.70;1.60;;;28.20;91.50;;;;;;5017986;28;20463;-89
2022/06/26 11:13:54;;;;;;;1.70;1.33;;;28.70;91.50;;;;;;5049449;28;20967;-89
2022/06/26 11:16:31;;;;;;;2.20;1.43;;;28.70;88.80;;;;;;5027595;28;20817;-90
2022/06/26 11:18:58;;;;;;;1.40;1.40;;;27.80;91.80;;;;;;5028744;28;21068;-88
2022/06/26 11:21:23;;;;;;;2.10;1.63;;;28.00;91.20;;;;;;5034510;28;20442;-89
2022/06/26 11:23:51;;;;;;;1.70;1.60;;;27.50;91.40;;;;;;5030120;28;20462;-89
2022/06/26 11:26:21;;;;;;;2.07;1.70;;;27.00;92.40;;;;;;5028845;28;20188;-89
2022/06/26 11:29:00;;;;;;;1.80;1.70;;;27.60;93.70;;;;;;5036556;28;20527;-90
2022/06/26 11:31:32;;;;;;;1.60;1.50;;;28.40;93.00;;;;;;5024393;28;20434;-88
2022/06/26 11:34:08;;;;;;;1.40;1.40;;;28.70;91.00;;;;;;5034287;28;20509;-89
2022/06/26 11:36:34;;;;;;;3.10;1.43;;;27.90;90.40;;;;;;5029799;28;20449;-88
2022/06/26 11:39:03;;;;;;;1.60;1.50;;;27.90;93.00;;;;;;5026256;28;21344;-89
2022/06/26 11:41:28;;;;;;;1.67;1.60;;;27.70;91.70;;;;;;5025820;28;20668;-89
2022/06/26 11:43:56;;;;;;;1.50;1.47;;;27.40;91.30;;;;;;5028438;28;20606;-89
2022/06/26 11:46:23;;;;;;;1.70;1.60;;;27.00;91.70;;;;;;5029942;28;20187;-89
2022/06/26 11:48:50;;;;;;;1.57;1.57;;;27.30;92.60;;;;;;5036887;28;20472;-89
2022/06/26 11:51:17;;;;;;;1.50;1.47;;;27.40;90.00;;;;;;5048890;28;20521;-87
2022/06/26 11:53:45;;;;;;;1.67;1.57;;;27.00;91.00;;;;;;5037912;28;20446;-88
2022/06/26 11:56:18;;;;;;;1.43;1.43;;;27.40;92.40;;;;;;5031843;28;20491;-88
2022/06/26 11:58:46;;;;;;;1.70;1.53;;;28.10;92.60;;;;;;5041169;28;20500;-89
2022/06/26 12:01:15;;;;;;;1.90;1.80;;;28.50;91.00;;;;;;5033779;28;20444;-89
2022/06/26 12:03:52;;;;;;;1.50;1.50;;;28.80;91.80;;;;;;5051865;28;20464;-88
2022/06/26 12:06:37;;;;;;;1.50;1.40;;;29.10;90.40;;;;;;5035222;28;20447;-89
2022/06/26 12:09:19;;;;;;;1.70;1.60;;;29.30;87.70;;;;;;5035834;28;20483;-88
2022/06/26 12:11:46;;;;;;;1.43;1.33;;;29.30;84.50;;;;;;5043164;28;20517;-89
2022/06/26 12:14:13;;;;;;;1.20;1.20;;;29.30;86.10;;;;;;5046168;28;20838;-88
2022/06/26 12:16:56;;;;;;;1.60;1.50;;;29.20;89.40;;;;;;5058516;28;21038;-89
2022/06/26 12:19:23;;;;;;;1.20;1.20;;;29.00;88.90;;;;;;5044564;28;21592;-89
2022/06/26 12:21:52;;;;;;;1.70;1.60;;;29.30;89.90;;;;;;5041189;28;20442;-89
2022/06/26 12:24:19;;;;;;;1.50;1.50;;;29.50;83.90;;;;;;5037457;28;21001;-89
2022/06/26 12:26:45;;;;;;;1.77;1.67;;;28.50;86.80;;;;;;5044877;28;20951;-90
2022/06/26 12:29:16;;;;;;;1.30;1.30;;;28.20;87.50;;;;;;5043757;28;20466;-89
2022/06/26 12:31:44;;;;;;;1.10;1.10;;;28.00;89.10;;;;;;5043686;28;20496;-88
2022/06/26 12:34:10;;;;;;;1.50;1.40;;;28.00;89.40;;;;;;5041484;28;20434;-89
2022/06/26 12:36:37;;;;;;;1.50;1.43;;;28.60;89.20;;;;;;5025402;28;20517;-88
2022/06/26 12:39:05;;;;;;;1.53;1.43;;;28.70;90.50;;;;;;5040717;28;20548;-88
2022/06/26 12:41:31;;;;;;;1.50;1.40;;;29.40;89.30;;;;;;5044262;28;20464;-89
2022/06/26 12:44:01;;;;;;;1.20;1.20;;;29.30;87.00;;;;;;5042426;28;20936;-89
2022/06/26 12:46:27;;;;;;;1.50;1.40;;;29.20;86.30;;;;;;5042086;28;20219;-88
2022/06/26 12:48:53;;;;;;;1.73;1.63;;;29.30;86.60;;;;;;5042463;28;20456;-89
2022/06/26 12:51:19;;;;;;;1.80;1.70;;;29.20;85.20;;;;;;5045439;28;20184;-88
2022/06/26 12:53:44;;;;;;;1.60;1.50;;;28.90;86.80;;;;;;5042470;28;20952;-88
2022/06/26 12:56:12;;;;;;;1.77;1.47;;;28.60;85.80;;;;;;5044600;28;20183;-91
2022/06/26 12:58:39;;;;;;;1.60;1.50;;;28.70;84.90;;;;;;5060615;28;20214;-89
2022/06/26 13:01:06;;;;;;;1.60;1.50;;;28.20;86.80;;;;;;5043946;28;20496;-88
2022/06/26 13:03:32;;;;;;;1.47;1.43;;;28.50;88.90;;;;;;5042923;28;20531;-88
2022/06/26 13:06:17;;;;;;;1.40;1.30;;;29.20;88.20;;;;;;5040920;28;20532;-88
2022/06/26 13:08:44;;;;;;;1.53;1.43;;;29.30;87.70;;;;;;5054108;28;20484;-88